createdAt,value
2022-09-16T00:00:57.044Z,98724.84
2022-09-16T00:01:58.903Z,98724.84
2022-09-16T00:03:00.698Z,98725.09
2022-09-16T00:04:02.727Z,98737.00
2022-09-16T00:05:04.715Z,98737.78
2022-09-16T00:06:07.176Z,98731.56
2022-09-16T00:07:08.889Z,98735.09
2022-09-16T00:08:11.112Z,98732.38
2022-09-16T00:09:12.888Z,98723.59
2022-09-16T00:10:14.888Z,98730.75
2022-09-16T00:11:18.515Z,98732.06
2022-09-16T00:12:20.267Z,98729.09
2022-09-16T00:13:21.955Z,98729.09
2022-09-16T00:14:23.805Z,98732.88
2022-09-16T00:15:25.656Z,98733.94
2022-09-16T00:16:29.476Z,98735.84
2022-09-16T00:17:31.376Z,98732.88
2022-09-16T00:18:33.132Z,98726.31
2022-09-16T00:19:34.916Z,98723.03
2022-09-16T00:20:36.604Z,98726.31
2022-09-16T00:21:38.357Z,98732.28
2022-09-16T00:22:40.159Z,98734.19
2022-09-16T00:23:42.021Z,98730.66
2022-09-16T00:24:43.897Z,98731.72
2022-09-16T00:25:50.591Z,98733.34
2022-09-16T00:26:52.373Z,98724.66
2022-09-16T00:27:54.081Z,98733.34
2022-09-16T00:28:55.864Z,98726.31
2022-09-16T00:29:57.641Z,98737.94
2022-09-16T00:31:03.206Z,98728.09
2022-09-16T00:32:05.110Z,98724.41
2022-09-16T00:33:07.094Z,98731.72
2022-09-16T00:34:08.843Z,98730.06
2022-09-16T00:35:10.596Z,98730.06
2022-09-16T00:36:16.047Z,98741.97
2022-09-16T00:37:18.140Z,98713.28
2022-09-16T00:38:19.968Z,98727.59
2022-09-16T00:39:21.720Z,98732.78
2022-09-16T00:40:23.503Z,98739.25
2022-09-16T00:41:28.831Z,98729.50
2022-09-16T00:42:30.532Z,98736.56
2022-09-16T00:43:49.102Z,98735.00
2022-09-16T00:45:14.184Z,98724.66
2022-09-16T00:46:17.993Z,98734.50
2022-09-16T00:47:31.752Z,98734.50
2022-09-16T00:48:34.460Z,98732.28
2022-09-16T00:49:36.167Z,98733.00
2022-09-16T00:50:41.667Z,98733.84
2022-09-16T00:51:48.028Z,98728.34
2022-09-16T00:52:52.745Z,98738.41
2022-09-16T00:54:03.326Z,98737.63
2022-09-16T00:55:08.863Z,98744.66
2022-09-16T00:56:13.456Z,98734.91
2022-09-16T00:57:16.162Z,98737.03
2022-09-16T00:58:48.065Z,98725.75
2022-09-16T00:59:54.504Z,98739.34
2022-09-16T01:00:56.427Z,98736.06
2022-09-16T01:02:01.780Z,98732.91
2022-09-16T01:03:04.363Z,98735.63
2022-09-16T01:04:18.856Z,98740.53
2022-09-16T01:05:25.872Z,98737.63
2022-09-16T01:06:29.442Z,98737.03
2022-09-16T01:07:42.759Z,98743.03
2022-09-16T01:08:45.533Z,98732.69
2022-09-16T01:09:47.207Z,98742.44
2022-09-16T01:10:48.955Z,98734.34
2022-09-16T01:11:50.904Z,98740.81
2022-09-16T01:12:58.329Z,98742.09
2022-09-16T01:14:21.602Z,98719.09
2022-09-16T01:15:31.764Z,98738.41
2022-09-16T01:16:40.486Z,98744.66
2022-09-16T01:17:59.395Z,98745.25
2022-09-16T01:19:07.835Z,98745.25
2022-09-16T01:20:18.603Z,98756.28
2022-09-16T01:21:35.610Z,98749.00
2022-09-16T01:22:55.504Z,98743.59
2022-09-16T01:24:45.408Z,98749.69
2022-09-16T01:26:11.166Z,98745.41
2022-09-16T01:27:26.368Z,98747.81
2022-09-16T01:28:53.235Z,98750.16
2022-09-16T01:30:03.318Z,98745.47
2022-09-16T01:31:07.784Z,98746.31
2022-09-16T01:32:18.969Z,98748.66
2022-09-16T01:33:34.361Z,98742.44
2022-09-16T01:34:42.371Z,98747.59
2022-09-16T01:35:53.111Z,98746.22
2022-09-16T01:37:33.865Z,98746.31
2022-09-16T01:38:44.690Z,98745.25
2022-09-16T01:39:49.764Z,98744.66
2022-09-16T01:41:00.427Z,98734.34
2022-09-16T01:42:10.871Z,98738.09
2022-09-16T01:43:25.474Z,98738.91
2022-09-16T01:44:37.007Z,98723.78
2022-09-16T01:45:54.106Z,98746.22
2022-09-16T01:47:04.720Z,98743.50
2022-09-16T01:48:34.774Z,98748.66
2022-09-16T01:49:48.835Z,98744.41
2022-09-16T01:51:02.795Z,98743.03
2022-09-16T01:52:29.579Z,98743.59
2022-09-16T01:53:37.285Z,98737.53
2022-09-16T01:54:45.859Z,98739.38
2022-09-16T01:56:04.276Z,98751.03
2022-09-16T01:57:09.336Z,98742.66
2022-09-16T01:58:14.002Z,98749.41
2022-09-16T01:59:25.059Z,98749.50
2022-09-16T02:00:26.960Z,98749.88
2022-09-16T02:01:38.480Z,98749.88
2022-09-16T02:02:51.671Z,98748.81
2022-09-16T02:04:00.427Z,98749.88
2022-09-16T02:05:07.907Z,98751.97
2022-09-16T02:06:14.943Z,98741.97
2022-09-16T02:07:20.781Z,98744.69
2022-09-16T02:08:40.595Z,98736.25
2022-09-16T02:09:48.520Z,98749.88
2022-09-16T02:10:55.989Z,98756.38
2022-09-16T02:12:05.609Z,98754.47
2022-09-16T02:13:41.560Z,98736.38
2022-09-16T02:14:46.764Z,98747.28
2022-09-16T02:15:51.697Z,98752.78
2022-09-16T02:17:04.031Z,98760.72
2022-09-16T02:18:12.027Z,98760.72
2022-09-16T02:19:20.623Z,98768.22
2022-09-16T02:20:27.416Z,98756.56
2022-09-16T02:21:33.445Z,98763.88
2022-09-16T02:22:41.115Z,98759.53
2022-09-16T02:23:48.783Z,98756.81
2022-09-16T02:24:52.947Z,98756.81
2022-09-16T02:25:55.678Z,98758.69
2022-09-16T02:27:04.588Z,98768.69
2022-09-16T02:28:13.213Z,98751.63
2022-09-16T02:29:20.903Z,98770.34
2022-09-16T02:30:23.935Z,98766.56
2022-09-16T02:31:33.699Z,98771.41
2022-09-16T02:32:39.853Z,98761.66
2022-09-16T02:34:04.215Z,98767.50
2022-09-16T02:35:10.769Z,98750.81
2022-09-16T02:36:17.286Z,98760.31
2022-09-16T02:37:38.915Z,98731.56
2022-09-16T02:38:44.636Z,98757.88
2022-09-16T02:39:50.411Z,98758.69
2022-09-16T02:40:56.358Z,98765.16
2022-09-16T02:42:00.529Z,98767.06
2022-09-16T02:43:03.087Z,98764.81
2022-09-16T02:44:05.640Z,98751.19
2022-09-16T02:45:08.679Z,98764.81
2022-09-16T02:46:44.091Z,98765.72
2022-09-16T02:47:51.908Z,98767.19
2022-09-16T02:49:02.296Z,98770.06
2022-09-16T02:50:14.414Z,98772.22
2022-09-16T02:51:39.208Z,98766.00
2022-09-16T02:53:01.873Z,98771.03
2022-09-16T02:54:30.368Z,98763.59
2022-09-16T02:56:00.159Z,98765.16
2022-09-16T02:57:02.544Z,98766.44
2022-09-16T02:58:07.675Z,98771.16
2022-09-16T02:59:12.936Z,98774.59
2022-09-16T03:00:14.710Z,98754.16
2022-09-16T03:01:18.039Z,98767.75
2022-09-16T03:02:20.189Z,98764.22
2022-09-16T03:03:22.509Z,98761.78
2022-09-16T03:04:24.340Z,98763.53
2022-09-16T03:05:30.646Z,98762.75
2022-09-16T03:06:36.170Z,98778.81
2022-09-16T03:07:40.702Z,98772.22
2022-09-16T03:08:44.877Z,98766.16
2022-09-16T03:09:48.860Z,98775.53
2022-09-16T03:10:53.071Z,98783.63
2022-09-16T03:12:06.564Z,98782.09
2022-09-16T03:13:35.574Z,98763.63
2022-09-16T03:14:49.422Z,98783.88
2022-09-16T03:16:23.565Z,98774.81
2022-09-16T03:17:40.228Z,98776.94
2022-09-16T03:18:55.520Z,98778.44
2022-09-16T03:20:07.711Z,98778.69
2022-09-16T03:21:21.306Z,98775.41
2022-09-16T03:22:45.469Z,98777.28
2022-09-16T03:23:53.517Z,98765.88
2022-09-16T03:25:22.662Z,98782.94
2022-09-16T03:26:59.777Z,98779.50
2022-09-16T03:28:14.065Z,98779.84
2022-09-16T03:29:34.457Z,98786.13
2022-09-16T03:30:43.527Z,98768.00
2022-09-16T03:31:53.712Z,98772.22
2022-09-16T03:33:00.632Z,98776.59
2022-09-16T03:34:16.671Z,98776.34
2022-09-16T03:35:26.685Z,98774.13
2022-09-16T03:36:33.565Z,98780.72
2022-09-16T03:37:38.506Z,98781.75
2022-09-16T03:38:41.901Z,98783.88
2022-09-16T03:39:49.919Z,98778.72
2022-09-16T03:40:53.053Z,98781.66
2022-09-16T03:41:55.740Z,98781.41
2022-09-16T03:42:58.098Z,98787.88
2022-09-16T03:44:03.841Z,98776.25
2022-09-16T03:45:07.342Z,98781.66
2022-09-16T03:46:12.232Z,98753.50
2022-09-16T03:47:14.426Z,98786.00
2022-09-16T03:48:16.081Z,98786.25
2022-09-16T03:49:17.881Z,98788.94
2022-09-16T03:50:21.318Z,98781.88
2022-09-16T03:51:24.170Z,98768.75
2022-09-16T03:52:25.942Z,98762.75
2022-09-16T03:53:27.731Z,98780.25
2022-09-16T03:54:29.499Z,98783.78
2022-09-16T03:55:31.331Z,98785.66
2022-09-16T03:56:33.099Z,98780.25
2022-09-16T03:57:34.888Z,98774.75
2022-09-16T03:58:36.707Z,98777.22
2022-09-16T03:59:38.410Z,98783.44
2022-09-16T04:00:40.113Z,98784.84
2022-09-16T04:01:41.952Z,98793.78
2022-09-16T04:02:43.806Z,98789.19
2022-09-16T04:03:45.748Z,98794.84
2022-09-16T04:04:47.472Z,98795.66
2022-09-16T04:05:58.460Z,98790.00
2022-09-16T04:07:00.231Z,98798.13
2022-09-16T04:08:02.063Z,98781.22
2022-09-16T04:09:07.107Z,98783.78
2022-09-16T04:10:09.013Z,98798.13
2022-09-16T04:11:10.802Z,98780.63
2022-09-16T04:12:12.695Z,98791.91
2022-09-16T04:13:15.149Z,98786.50
2022-09-16T04:14:16.964Z,98778.16
2022-09-16T04:15:18.731Z,98784.50
2022-09-16T04:16:21.949Z,98785.66
2022-09-16T04:17:24.475Z,98792.97
2022-09-16T04:18:26.287Z,98780.50
2022-09-16T04:19:28.165Z,98784.00
2022-09-16T04:20:29.835Z,98791.53
2022-09-16T04:21:31.550Z,98792.13
2022-09-16T04:22:33.391Z,98790.25
2022-09-16T04:23:35.204Z,98784.97
2022-09-16T04:24:36.923Z,98795.66
2022-09-16T04:25:38.707Z,98782.38
2022-09-16T04:26:41.546Z,98795.91
2022-09-16T04:27:43.215Z,98792.13
2022-09-16T04:28:44.890Z,98776.88
2022-09-16T04:29:46.722Z,98794.03
2022-09-16T04:30:48.517Z,98789.41
2022-09-16T04:31:50.480Z,98794.84
2022-09-16T04:32:56.404Z,98790.47
2022-09-16T04:33:58.383Z,98781.69
2022-09-16T04:35:00.103Z,98784.50
2022-09-16T04:36:12.930Z,98789.41
2022-09-16T04:37:14.738Z,98792.72
2022-09-16T04:38:16.474Z,98790.25
2022-09-16T04:39:18.202Z,98782.38
2022-09-16T04:40:20.161Z,98791.31
2022-09-16T04:41:24.843Z,98790.38
2022-09-16T04:42:26.555Z,98791.31
2022-09-16T04:43:28.304Z,98792.38
2022-09-16T04:44:30.327Z,98788.75
2022-09-16T04:45:32.126Z,98794.25
2022-09-16T04:46:33.961Z,98790.75
2022-09-16T04:47:35.701Z,98782.53
2022-09-16T04:48:37.732Z,98781.69
2022-09-16T04:49:39.464Z,98795.09
2022-09-16T04:50:41.174Z,98796.16
2022-09-16T04:51:42.991Z,98760.09
2022-09-16T04:52:44.748Z,98782.53
2022-09-16T04:53:47.287Z,98797.22
2022-09-16T04:54:49.035Z,98795.31
2022-09-16T04:55:50.743Z,98790.75
2022-09-16T04:56:52.442Z,98794.25
2022-09-16T04:57:54.210Z,98793.44
2022-09-16T04:58:59.379Z,98795.31
2022-09-16T05:00:01.324Z,98796.94
2022-09-16T05:01:23.027Z,98798.13
2022-09-16T05:02:24.936Z,98794.34
2022-09-16T05:03:26.773Z,98789.91
2022-09-16T05:04:28.479Z,98781.69
2022-09-16T05:05:30.179Z,98793.19
2022-09-16T05:06:34.411Z,98788.25
2022-09-16T05:07:36.223Z,98794.25
2022-09-16T05:08:38.638Z,98788.75
2022-09-16T05:09:40.983Z,98800.50
2022-09-16T05:10:42.660Z,98802.13
2022-09-16T05:11:44.377Z,98789.91
2022-09-16T05:12:51.913Z,98784.16
2022-09-16T05:13:54.213Z,98793.06
2022-09-16T05:14:55.961Z,98798.22
2022-09-16T05:16:02.752Z,98798.00
2022-09-16T05:17:04.576Z,98798.09
2022-09-16T05:18:06.387Z,98795.59
2022-09-16T05:19:09.147Z,98804.66
2022-09-16T05:20:10.958Z,98796.81
2022-09-16T05:21:19.043Z,98797.50
2022-09-16T05:22:20.722Z,98807.38
2022-09-16T05:23:23.318Z,98808.75
2022-09-16T05:24:25.002Z,98810.97
2022-09-16T05:25:26.874Z,98803.69
2022-09-16T05:26:31.416Z,98797.56
2022-09-16T05:27:34.125Z,98806.59
2022-09-16T05:28:36.649Z,98804.38
2022-09-16T05:29:38.372Z,98809.16
2022-09-16T05:30:40.288Z,98802.69
2022-09-16T05:31:44.230Z,98802.19
2022-09-16T05:32:45.945Z,98803.63
2022-09-16T05:34:19.380Z,98796.66
2022-09-16T05:35:21.046Z,98800.69
2022-09-16T05:36:23.823Z,98802.56
2022-09-16T05:37:25.571Z,98804.19
2022-09-16T05:38:27.318Z,98806.66
2022-09-16T05:39:29.312Z,98796.41
2022-09-16T05:40:31.259Z,98798.91
2022-09-16T05:41:33.428Z,98801.13
2022-09-16T05:42:35.130Z,98807.94
2022-09-16T05:43:37.961Z,98806.66
2022-09-16T05:44:39.799Z,98800.16
2022-09-16T05:45:41.539Z,98798.53
2022-09-16T05:46:43.930Z,98802.13
2022-09-16T05:47:49.416Z,98793.91
2022-09-16T05:48:51.187Z,98803.88
2022-09-16T05:49:54.943Z,98809.88
2022-09-16T05:51:04.311Z,98806.09
2022-09-16T05:52:06.094Z,98806.16
2022-09-16T05:53:07.801Z,98798.03
2022-09-16T05:54:09.614Z,98802.31
2022-09-16T05:55:11.433Z,98810.25
2022-09-16T05:56:16.521Z,98802.97
2022-09-16T05:57:18.419Z,98786.13
2022-09-16T05:58:20.207Z,98805.75
2022-09-16T05:59:23.913Z,98799.75
2022-09-16T06:00:25.643Z,98809.03
2022-09-16T06:01:37.847Z,98806.31
2022-09-16T06:02:39.638Z,98812.91
2022-09-16T06:03:42.886Z,98810.44
2022-09-16T06:04:44.502Z,98803.69
2022-09-16T06:05:46.316Z,98805.84
2022-09-16T06:06:48.003Z,98809.13
2022-09-16T06:07:49.732Z,98802.56
2022-09-16T06:08:53.446Z,98803.69
2022-09-16T06:09:55.192Z,98806.16
2022-09-16T06:10:57.374Z,98808.63
2022-09-16T06:12:02.228Z,98810.25
2022-09-16T06:13:04.279Z,98805.69
2022-09-16T06:14:06.857Z,98806.47
2022-09-16T06:15:10.195Z,98793.34
2022-09-16T06:16:11.947Z,98801.06
2022-09-16T06:17:13.665Z,98807.31
2022-09-16T06:18:16.413Z,98809.19
2022-09-16T06:19:18.694Z,98809.19
2022-09-16T06:20:20.645Z,98800.50
2022-09-16T06:21:23.075Z,98808.13
2022-09-16T06:22:25.095Z,98807.06
2022-09-16T06:23:27.341Z,98806.47
2022-09-16T06:24:29.023Z,98806.00
2022-09-16T06:25:30.787Z,98810.59
2022-09-16T06:26:32.508Z,98797.47
2022-09-16T06:27:34.259Z,98799.75
2022-09-16T06:28:36.319Z,98803.53
2022-09-16T06:29:38.194Z,98807.63
2022-09-16T06:30:40.576Z,98811.41
2022-09-16T06:31:43.124Z,98806.00
2022-09-16T06:32:44.905Z,98804.13
2022-09-16T06:33:47.268Z,98808.47
2022-09-16T06:34:50.180Z,98794.00
2022-09-16T06:35:53.491Z,98810.34
2022-09-16T06:36:55.212Z,98803.84
2022-09-16T06:37:57.074Z,98811.16
2022-09-16T06:38:58.849Z,98800.25
2022-09-16T06:40:00.594Z,98807.63
2022-09-16T06:41:04.715Z,98807.63
2022-09-16T06:42:09.410Z,98808.47
2022-09-16T06:43:15.411Z,98801.06
2022-09-16T06:44:17.135Z,98815.53
2022-09-16T06:45:18.802Z,98815.53
2022-09-16T06:46:23.713Z,98808.47
2022-09-16T06:47:25.916Z,98810.84
2022-09-16T06:48:28.466Z,98814.69
2022-09-16T06:49:30.272Z,98815.53
2022-09-16T06:50:32.700Z,98813.88
2022-09-16T06:51:36.035Z,98815.75
2022-09-16T06:52:37.811Z,98796.72
2022-09-16T06:53:39.666Z,98816.59
2022-09-16T06:54:42.004Z,98814.69
2022-09-16T06:55:43.973Z,98811.97
2022-09-16T06:56:45.813Z,98814.69
2022-09-16T06:57:47.554Z,98817.41
2022-09-16T06:58:55.867Z,98812.25
2022-09-16T06:59:57.611Z,98810.91
2022-09-16T07:01:00.098Z,98820.09
2022-09-16T07:02:02.212Z,98810.09
2022-09-16T07:03:03.998Z,98813.03
2022-09-16T07:04:10.605Z,98812.25
2022-09-16T07:05:12.345Z,98813.63
2022-09-16T07:06:15.706Z,98814.69
2022-09-16T07:07:17.371Z,98810.09
2022-09-16T07:08:19.034Z,98817.41
2022-09-16T07:09:20.694Z,98813.03
2022-09-16T07:10:24.231Z,98819.31
2022-09-16T07:11:26.363Z,98814.69
2022-09-16T07:12:29.065Z,98812.25
2022-09-16T07:13:31.709Z,98815.53
2022-09-16T07:14:33.970Z,98818.16
2022-09-16T07:15:46.275Z,98810.59
2022-09-16T07:16:57.474Z,98819.38
2022-09-16T07:17:59.268Z,98820.44
2022-09-16T07:19:01.449Z,98813.88
2022-09-16T07:20:03.905Z,98814.13
2022-09-16T07:21:16.651Z,98810.91
2022-09-16T07:22:18.622Z,98824.22
2022-09-16T07:23:20.335Z,98816.59
2022-09-16T07:24:22.038Z,98814.19
2022-09-16T07:25:23.793Z,98822.31
2022-09-16T07:26:28.963Z,98823.38
2022-09-16T07:27:31.477Z,98813.53
2022-09-16T07:28:33.686Z,98827.75
2022-09-16T07:29:35.400Z,98819.53
2022-09-16T07:30:37.129Z,98824.22
2022-09-16T07:31:39.197Z,98826.66
2022-09-16T07:32:41.041Z,98826.66
2022-09-16T07:33:46.428Z,98829.66
2022-09-16T07:34:48.155Z,98832.94
2022-09-16T07:35:49.823Z,98830.22
2022-09-16T07:36:51.674Z,98820.38
2022-09-16T07:37:53.429Z,98828.31
2022-09-16T07:38:59.642Z,98833.72
2022-09-16T07:40:01.513Z,98838.91
2022-09-16T07:41:08.211Z,98833.72
2022-09-16T07:42:10.515Z,98828.88
2022-09-16T07:43:12.218Z,98829.38
2022-09-16T07:44:17.051Z,98844.34
2022-09-16T07:45:18.791Z,98834.06
2022-09-16T07:46:21.895Z,98831.59
2022-09-16T07:47:23.856Z,98833.50
2022-09-16T07:48:26.048Z,98842.44
2022-09-16T07:49:27.809Z,98845.16
2022-09-16T07:50:29.488Z,98844.34
2022-09-16T07:51:31.887Z,98847.03
2022-09-16T07:52:33.766Z,98845.16
2022-09-16T07:53:35.920Z,98846.81
2022-09-16T07:54:37.606Z,98847.84
2022-09-16T07:55:39.334Z,98847.84
2022-09-16T07:56:42.920Z,98844.56
2022-09-16T07:57:44.771Z,98848.69
2022-09-16T07:58:47.866Z,98847.03
2022-09-16T07:59:50.210Z,98858.47
2022-09-16T08:00:51.924Z,98851.41
2022-09-16T08:01:53.774Z,98846.81
2022-09-16T08:02:59.202Z,98846.22
2022-09-16T08:04:01.626Z,98854.94
2022-09-16T08:05:03.868Z,98846.22
2022-09-16T08:06:08.299Z,98851.41
2022-09-16T08:07:10.023Z,98849.53
2022-09-16T08:08:11.900Z,98852.25
2022-09-16T08:10:37.415Z,98841.47
2022-09-16T08:11:39.160Z,98857.16
2022-09-16T08:12:40.830Z,98848.47
2022-09-16T08:13:43.938Z,98851.16
2022-09-16T08:14:45.750Z,98850.34
2022-09-16T08:15:47.491Z,98849.53
2022-09-16T08:16:51.614Z,98851.16
2022-09-16T08:17:53.563Z,98853.03
2022-09-16T08:18:57.119Z,98854.13
2022-09-16T08:19:59.019Z,98856.59
2022-09-16T08:21:12.987Z,98861.75
2022-09-16T08:22:14.737Z,98854.75
2022-09-16T08:23:16.763Z,98852.31
2022-09-16T08:24:18.559Z,98856.09
2022-09-16T08:25:20.617Z,98849.59
2022-09-16T08:26:22.500Z,98862.09
2022-09-16T08:27:24.284Z,98861.03
2022-09-16T08:28:35.806Z,98867.25
2022-09-16T08:29:47.226Z,98857.56
2022-09-16T08:30:51.379Z,98863.84
2022-09-16T08:31:55.107Z,98854.63
2022-09-16T08:33:00.438Z,98859.22
2022-09-16T08:34:02.152Z,98856.50
2022-09-16T08:35:04.124Z,98861.94
2022-09-16T08:36:25.332Z,98863.06
2022-09-16T08:37:27.533Z,98853.00
2022-09-16T08:38:29.698Z,98854.94
2022-09-16T08:39:31.498Z,98866.84
2022-09-16T08:40:36.658Z,98864.41
2022-09-16T08:42:05.627Z,98862.28
2022-09-16T08:43:16.982Z,98863.97
2022-09-16T08:44:33.195Z,98839.34
2022-09-16T08:46:02.409Z,98865.13
2022-09-16T08:47:11.158Z,98863.75
2022-09-16T08:48:31.234Z,98863.97
2022-09-16T08:49:35.912Z,98861.28
2022-09-16T08:50:44.882Z,98860.69
2022-09-16T08:51:47.265Z,98869.91
2022-09-16T08:52:51.423Z,98858.97
2022-09-16T08:54:07.579Z,98864.47
2022-09-16T08:55:17.484Z,98869.91
2022-09-16T08:56:22.739Z,98871.53
2022-09-16T08:57:29.312Z,98874.50
2022-09-16T08:58:38.767Z,98858.16
2022-09-16T08:59:45.959Z,98865.47
2022-09-16T09:00:56.037Z,98874.50
2022-09-16T09:02:35.425Z,98872.13
2022-09-16T09:03:40.519Z,98870.56
2022-09-16T09:04:44.222Z,98874.81
2022-09-16T09:05:54.672Z,98868.84
2022-09-16T09:07:22.060Z,98873.19
2022-09-16T09:08:38.337Z,98873.53
2022-09-16T09:09:58.930Z,98875.97
2022-09-16T09:11:14.891Z,98868.34
2022-09-16T09:12:37.989Z,98869.47
2022-09-16T09:14:18.291Z,98876.53
2022-09-16T09:15:27.509Z,98877.13
2022-09-16T09:16:48.037Z,98875.41
2022-09-16T09:17:55.486Z,98878.94
2022-09-16T09:19:06.239Z,98873.75
2022-09-16T09:20:41.668Z,98879.75
2022-09-16T09:21:52.656Z,98881.16
2022-09-16T09:23:03.742Z,98879.19
2022-09-16T09:24:26.646Z,98875.97
2022-09-16T09:25:57.967Z,98871.69
2022-09-16T09:27:10.021Z,98878.44
2022-09-16T09:28:11.647Z,98884.09
2022-09-16T09:29:23.692Z,98882.16
2022-09-16T09:30:27.679Z,98881.09
2022-09-16T09:31:53.712Z,98868.25
2022-09-16T09:33:41.484Z,98874.59
2022-09-16T09:34:42.531Z,98877.94
2022-09-16T09:36:03.005Z,98879.25
2022-09-16T09:37:35.678Z,98873.34
2022-09-16T09:39:03.747Z,98881.53
2022-09-16T09:40:13.756Z,98880.41
2022-09-16T09:41:25.167Z,98865.63
2022-09-16T09:42:32.073Z,98884.09
2022-09-16T09:45:02.656Z,98873.53
2022-09-16T09:46:27.871Z,98873.53
2022-09-16T09:47:53.950Z,98877.69
2022-09-16T09:49:22.135Z,98867.25
2022-09-16T09:50:29.583Z,98883.38
2022-09-16T09:51:38.347Z,98879.25
2022-09-16T09:52:59.295Z,98856.28
2022-09-16T09:54:23.239Z,98884.94
2022-09-16T09:55:27.896Z,98881.41
2022-09-16T09:56:41.790Z,98886.81
2022-09-16T09:58:09.740Z,98885.25
2022-09-16T09:59:30.950Z,98885.25
2022-09-16T10:00:32.923Z,98889.59
2022-09-16T10:01:34.716Z,98880.31
2022-09-16T10:02:40.264Z,98875.56
2022-09-16T10:03:42.127Z,98899.00
2022-09-16T10:04:44.449Z,98885.91
2022-09-16T10:05:47.788Z,98894.03
2022-09-16T10:06:51.850Z,98875.91
2022-09-16T10:07:57.770Z,98889.69
2022-09-16T10:08:59.806Z,98884.88
2022-09-16T10:10:14.327Z,98885.34
2022-09-16T10:11:23.138Z,98892.75
2022-09-16T10:12:36.017Z,98896.84
2022-09-16T10:13:48.858Z,98892.25
2022-09-16T10:14:50.565Z,98899.31
2022-09-16T10:16:10.506Z,98892.25
2022-09-16T10:17:17.072Z,98885.09
2022-09-16T10:18:26.976Z,98890.59
2022-09-16T10:19:30.306Z,98892.25
2022-09-16T10:20:37.722Z,98895.44
2022-09-16T10:21:53.428Z,98901.44
2022-09-16T10:23:06.586Z,98894.16
2022-09-16T10:24:25.777Z,98877.78
2022-09-16T10:25:29.745Z,98893.66
2022-09-16T10:26:40.880Z,98897.66
2022-09-16T10:27:42.676Z,98893.06
2022-09-16T10:29:15.537Z,98892.31
2022-09-16T10:31:38.010Z,98900.16
2022-09-16T10:32:45.968Z,98892.81
2022-09-16T10:33:48.240Z,98888.47
2022-09-16T10:34:50.709Z,98894.88
2022-09-16T10:36:00.610Z,98883.47
2022-09-16T10:37:14.072Z,98891.09
2022-09-16T10:38:20.518Z,98894.38
2022-09-16T10:39:25.840Z,98891.09
2022-09-16T10:40:27.895Z,98885.19
2022-09-16T10:41:33.972Z,98890.28
2022-09-16T10:42:36.114Z,98881.81
2022-09-16T10:43:39.857Z,98870.41
2022-09-16T10:44:42.178Z,98880.47
2022-09-16T10:45:48.271Z,98885.91
2022-09-16T10:46:58.869Z,98881.56
2022-09-16T10:48:07.266Z,98878.38
2022-09-16T10:49:12.419Z,98887.31
2022-09-16T10:50:19.109Z,98879.44
2022-09-16T10:51:32.157Z,98883.53
2022-09-16T10:52:45.834Z,98890.38
2022-09-16T10:53:54.102Z,98891.44
2022-09-16T10:54:56.791Z,98891.94
2022-09-16T10:56:02.128Z,98900.06
2022-09-16T10:57:04.012Z,98880.66
2022-09-16T10:58:18.674Z,98891.94
2022-09-16T10:59:20.537Z,98894.16
2022-09-16T11:00:34.033Z,98891.66
2022-09-16T11:02:22.601Z,98889.28
2022-09-16T11:03:36.473Z,98892.38
2022-09-16T11:05:03.206Z,98881.22
2022-09-16T11:06:17.435Z,98889.09
2022-09-16T11:07:31.879Z,98890.19
2022-09-16T11:08:52.222Z,98893.16
2022-09-16T11:10:11.282Z,98889.09
2022-09-16T11:11:25.270Z,98888.31
2022-09-16T11:12:45.704Z,98888.03
2022-09-16T11:13:50.031Z,98887.47
2022-09-16T11:15:23.868Z,98888.31
2022-09-16T11:16:45.237Z,98882.63
2022-09-16T11:18:07.235Z,98882.94
2022-09-16T11:19:19.122Z,98868.19
2022-09-16T11:20:45.864Z,98885.81
2022-09-16T11:21:59.831Z,98889.94
2022-09-16T11:23:23.671Z,98884.03
2022-09-16T11:24:47.110Z,98884.81
2022-09-16T11:26:11.952Z,98886.47
2022-09-16T11:27:41.459Z,98890.50
2022-09-16T11:29:09.638Z,98879.97
2022-09-16T11:30:15.219Z,98889.19
2022-09-16T11:31:35.629Z,98882.03
2022-09-16T11:32:43.246Z,98887.47
2022-09-16T11:34:14.285Z,98881.22
2022-09-16T11:35:34.931Z,98896.16
2022-09-16T11:36:51.257Z,98889.69
2022-09-16T11:37:58.222Z,98882.88
2022-09-16T11:39:15.115Z,98887.22
2022-09-16T11:40:34.057Z,98898.31
2022-09-16T11:41:42.554Z,98887.47
2022-09-16T11:43:15.213Z,98883.94
2022-09-16T11:44:26.236Z,98888.03
2022-09-16T11:46:08.407Z,98885.31
2022-09-16T11:47:25.339Z,98888.72
2022-09-16T11:48:39.374Z,98889.44
2022-09-16T11:49:55.278Z,98890.25
2022-09-16T11:51:15.847Z,98891.88
2022-09-16T11:52:39.152Z,98891.09
2022-09-16T11:54:08.466Z,98888.72
2022-09-16T11:55:24.452Z,98890.25
2022-09-16T11:56:43.637Z,98893.22
2022-09-16T11:57:52.483Z,98880.97
2022-09-16T11:59:01.287Z,98889.38
2022-09-16T12:00:10.617Z,98887.16
2022-09-16T12:01:26.296Z,98885.00
2022-09-16T12:02:58.682Z,98884.53
2022-09-16T12:04:13.062Z,98881.53
2022-09-16T12:05:19.906Z,98881.53
2022-09-16T12:06:26.437Z,98883.09
2022-09-16T12:07:34.353Z,98894.22
2022-09-16T12:08:59.127Z,98887.97
2022-09-16T12:10:16.951Z,98892.38
2022-09-16T12:11:27.607Z,98889.94
2022-09-16T12:12:34.055Z,98878.94
2022-09-16T12:13:44.528Z,98880.81
2022-09-16T12:14:56.042Z,98902.34
2022-09-16T12:16:03.943Z,98881.09
2022-09-16T12:17:19.023Z,98902.09
2022-09-16T12:18:33.198Z,98898.56
2022-09-16T12:19:45.666Z,98892.88
2022-09-16T12:20:53.243Z,98900.44
2022-09-16T12:22:03.799Z,98897.75
2022-09-16T12:23:18.626Z,98906.72
2022-09-16T12:24:51.241Z,98908.66
2022-09-16T12:26:00.155Z,98895.59
2022-09-16T12:27:24.625Z,98898.88
2022-09-16T12:28:35.039Z,98897.00
2022-09-16T12:29:55.343Z,98901.09
2022-09-16T12:31:08.915Z,98897.00
2022-09-16T12:32:21.719Z,98889.09
2022-09-16T12:33:33.175Z,98899.94
2022-09-16T12:34:41.819Z,98903.72
2022-09-16T12:36:00.238Z,98905.94
2022-09-16T12:37:32.910Z,98909.81
2022-09-16T12:38:35.421Z,98908.72
2022-09-16T12:39:37.099Z,98901.94
2022-09-16T12:41:01.868Z,98895.59
2022-09-16T12:42:39.650Z,98903.31
2022-09-16T12:44:23.549Z,98903.91
2022-09-16T12:45:44.660Z,98905.13
2022-09-16T12:47:03.903Z,98896.66
2022-09-16T12:48:31.622Z,98905.06
2022-09-16T12:49:53.834Z,98909.41
2022-09-16T12:51:33.703Z,98912.13
2022-09-16T12:52:57.290Z,98914.91
2022-09-16T12:54:21.467Z,98910.56
2022-09-16T12:55:38.303Z,98906.44
2022-09-16T12:57:18.596Z,98906.19
2022-09-16T12:58:28.312Z,98902.28
2022-09-16T12:59:29.948Z,98917.53
2022-09-16T13:00:59.065Z,98912.13
2022-09-16T13:02:10.796Z,98914.00
2022-09-16T13:03:22.882Z,98911.53
2022-09-16T13:04:31.727Z,98913.91
2022-09-16T13:05:39.158Z,98910.97
2022-09-16T13:06:50.088Z,98909.34
2022-09-16T13:07:55.274Z,98912.84
2022-09-16T13:09:10.744Z,98910.41
2022-09-16T13:10:53.752Z,98919.69
2022-09-16T13:13:31.192Z,98917.63
2022-09-16T13:14:38.185Z,98918.34
2022-09-16T13:15:40.418Z,98917.53
2022-09-16T13:16:53.168Z,98908.84
2022-09-16T13:17:55.861Z,98908.84
2022-09-16T13:19:25.449Z,98909.41
2022-09-16T13:20:33.803Z,98921.06
2022-09-16T13:21:44.638Z,98915.06
2022-09-16T13:22:55.236Z,98910.47
2022-09-16T13:24:06.101Z,98915.91
2022-09-16T13:25:32.059Z,98911.28
2022-09-16T13:26:45.264Z,98914.34
2022-09-16T13:28:01.658Z,98907.25
2022-09-16T13:29:03.485Z,98911.03
2022-09-16T13:30:13.892Z,98908.00
2022-09-16T13:31:18.770Z,98915.56